createdAt,value
2022-09-15T00:02:25.374Z,13.82
2022-09-15T00:04:51.996Z,13.78
2022-09-15T00:07:18.585Z,13.75
2022-09-15T00:09:45.063Z,13.72
2022-09-15T00:12:11.726Z,13.68
2022-09-15T00:14:38.265Z,13.62
2022-09-15T00:17:04.857Z,13.59
2022-09-15T00:19:31.391Z,13.55
2022-09-15T00:21:57.881Z,13.53
2022-09-15T00:24:24.517Z,13.49
2022-09-15T00:26:51.039Z,13.48
2022-09-15T00:29:17.538Z,13.47
2022-09-15T00:31:44.052Z,13.44
2022-09-15T00:34:12.680Z,13.44
2022-09-15T00:36:39.394Z,13.43
2022-09-15T00:39:06.417Z,13.42
2022-09-15T00:41:33.005Z,13.42
2022-09-15T00:44:02.741Z,13.39
2022-09-15T00:46:33.232Z,13.35
2022-09-15T00:49:13.557Z,13.34
2022-09-15T00:51:42.943Z,13.35
2022-09-15T00:54:16.413Z,13.34
2022-09-15T00:56:44.309Z,13.33
2022-09-15T00:59:15.373Z,13.33
2022-09-15T01:01:43.808Z,13.31
2022-09-15T01:04:10.817Z,13.30
2022-09-15T01:06:41.567Z,13.31
2022-09-15T01:09:13.303Z,13.32
2022-09-15T01:11:40.169Z,13.36
2022-09-15T01:14:07.173Z,13.41
2022-09-15T01:16:50.611Z,13.43
2022-09-15T01:20:00.102Z,13.42
2022-09-15T01:22:37.124Z,13.38
2022-09-15T01:25:10.610Z,13.34
2022-09-15T01:27:51.903Z,13.31
2022-09-15T01:30:24.877Z,13.26
2022-09-15T01:33:06.643Z,13.22
2022-09-15T01:35:52.725Z,13.18
2022-09-15T01:38:37.910Z,13.14
2022-09-15T01:41:25.381Z,13.14
2022-09-15T01:44:13.466Z,13.10
2022-09-15T01:46:47.685Z,13.08
2022-09-15T01:49:18.194Z,13.07
2022-09-15T01:51:45.717Z,13.07
2022-09-15T01:54:13.191Z,13.10
2022-09-15T01:56:41.935Z,13.12
2022-09-15T01:59:09.408Z,13.16
2022-09-15T02:01:47.079Z,13.26
2022-09-15T02:04:36.699Z,13.33
2022-09-15T02:07:11.740Z,13.43
2022-09-15T02:09:54.655Z,13.53
2022-09-15T02:12:35.675Z,13.63
2022-09-15T02:15:10.495Z,13.71
2022-09-15T02:17:42.645Z,13.82
2022-09-15T02:20:16.073Z,13.92
2022-09-15T02:22:47.714Z,14.00
2022-09-15T02:25:18.582Z,14.07
2022-09-15T02:27:48.914Z,14.15
2022-09-15T02:30:17.572Z,14.22
2022-09-15T02:32:51.891Z,14.28
2022-09-15T02:35:18.631Z,14.32
2022-09-15T02:37:46.207Z,14.37
2022-09-15T02:40:12.930Z,14.40
2022-09-15T02:42:39.593Z,14.43
2022-09-15T02:45:06.839Z,14.46
2022-09-15T02:47:33.311Z,14.48
2022-09-15T02:50:00.087Z,14.49
2022-09-15T02:52:26.620Z,14.53
2022-09-15T02:54:53.470Z,14.51
2022-09-15T02:57:20.994Z,14.53
2022-09-15T03:00:13.362Z,14.50
2022-09-15T03:02:45.475Z,14.50
2022-09-15T03:05:13.907Z,14.50
2022-09-15T03:07:40.582Z,14.51
2022-09-15T03:10:08.937Z,14.51
2022-09-15T03:12:43.888Z,14.53
2022-09-15T03:15:12.981Z,14.53
2022-09-15T03:17:43.936Z,14.54
2022-09-15T03:20:12.396Z,14.54
2022-09-15T03:22:39.192Z,14.53
2022-09-15T03:25:07.345Z,14.52
2022-09-15T03:27:34.677Z,14.50
2022-09-15T03:30:01.844Z,14.47
2022-09-15T03:32:28.492Z,14.42
2022-09-15T03:34:58.344Z,14.35
2022-09-15T03:37:25.525Z,14.31
2022-09-15T03:39:52.094Z,14.25
2022-09-15T03:42:19.641Z,14.21
2022-09-15T03:44:46.143Z,14.20
2022-09-15T03:47:13.123Z,14.20
2022-09-15T03:49:39.616Z,14.20
2022-09-15T03:52:06.164Z,14.22
2022-09-15T03:54:32.705Z,14.26
2022-09-15T03:56:59.162Z,14.29
2022-09-15T03:59:25.722Z,14.34
2022-09-15T04:01:52.346Z,14.38
2022-09-15T04:04:19.232Z,14.44
2022-09-15T04:06:45.890Z,14.48
2022-09-15T04:09:12.470Z,14.50
2022-09-15T04:11:39.565Z,14.56
2022-09-15T04:14:06.078Z,14.57
2022-09-15T04:16:32.587Z,14.59
2022-09-15T04:18:59.349Z,14.60
2022-09-15T04:21:26.728Z,14.61
2022-09-15T04:23:54.190Z,14.60
2022-09-15T04:26:22.983Z,14.63
2022-09-15T04:28:49.600Z,14.62
2022-09-15T04:31:17.054Z,14.57
2022-09-15T04:33:44.350Z,14.58
2022-09-15T04:36:13.676Z,14.58
2022-09-15T04:38:40.570Z,14.54
2022-09-15T04:41:07.217Z,14.53
2022-09-15T04:43:34.464Z,14.54
2022-09-15T04:46:01.038Z,14.56
2022-09-15T04:48:27.796Z,14.54
2022-09-15T04:50:54.729Z,14.54
2022-09-15T04:53:21.352Z,14.54
2022-09-15T04:55:47.834Z,14.54
2022-09-15T04:58:14.318Z,14.57
2022-09-15T05:00:45.969Z,14.54
2022-09-15T05:03:14.064Z,14.53
2022-09-15T05:05:40.902Z,14.53
2022-09-15T05:08:08.188Z,14.53
2022-09-15T05:10:35.182Z,14.53
2022-09-15T05:13:01.675Z,14.53
2022-09-15T05:15:28.171Z,14.55
2022-09-15T05:17:54.760Z,14.56
2022-09-15T05:20:21.324Z,14.58
2022-09-15T05:22:47.875Z,14.54
2022-09-15T05:25:14.522Z,14.54
2022-09-15T05:27:41.346Z,14.52
2022-09-15T05:30:36.907Z,14.53
2022-09-15T05:32:55.029Z,14.47
2022-09-15T05:35:21.818Z,14.44
2022-09-15T05:37:48.396Z,14.43
2022-09-15T05:40:15.357Z,14.41
2022-09-15T05:42:41.877Z,14.36
2022-09-15T05:45:08.930Z,14.33
2022-09-15T05:47:35.559Z,14.34
2022-09-15T05:50:02.106Z,14.37
2022-09-15T05:52:28.556Z,14.40
2022-09-15T05:54:58.971Z,14.41
2022-09-15T05:57:25.809Z,14.43
2022-09-15T05:59:52.419Z,14.53
2022-09-15T06:02:19.023Z,14.57
2022-09-15T06:04:45.688Z,14.62
2022-09-15T06:07:12.436Z,14.66
2022-09-15T06:09:39.533Z,14.71
2022-09-15T06:12:06.249Z,14.75
2022-09-15T06:14:32.725Z,14.75
2022-09-15T06:16:59.280Z,14.79
2022-09-15T06:19:25.781Z,14.85
2022-09-15T06:21:54.024Z,14.88
2022-09-15T06:24:20.579Z,14.91
2022-09-15T06:26:47.281Z,14.93
2022-09-15T06:29:13.817Z,14.96
2022-09-15T06:31:40.649Z,14.99
2022-09-15T06:34:08.644Z,15.02
2022-09-15T06:36:37.635Z,15.08
2022-09-15T06:39:04.660Z,15.17
2022-09-15T06:41:52.466Z,15.26
2022-09-15T06:44:19.009Z,15.37
2022-09-15T06:46:45.737Z,15.41
2022-09-15T06:49:12.397Z,15.44
2022-09-15T06:51:38.898Z,15.49
2022-09-15T06:54:05.740Z,15.57
2022-09-15T06:56:37.615Z,15.63
2022-09-15T06:59:04.721Z,15.70
2022-09-15T07:01:32.033Z,15.80
2022-09-15T07:04:00.787Z,15.89
2022-09-15T07:06:31.766Z,16.01
2022-09-15T07:08:58.783Z,16.09
2022-09-15T07:11:25.615Z,16.20
2022-09-15T07:13:52.243Z,16.25
2022-09-15T07:16:19.437Z,16.25
2022-09-15T07:18:46.922Z,16.30
2022-09-15T07:21:18.497Z,16.35
2022-09-15T07:23:45.035Z,16.35
2022-09-15T07:26:12.973Z,16.38
2022-09-15T07:28:42.043Z,16.27
2022-09-15T07:31:10.804Z,16.23
2022-09-15T07:33:37.334Z,16.14
2022-09-15T07:36:06.049Z,15.98
2022-09-15T07:38:33.511Z,15.92
2022-09-15T07:41:11.133Z,15.92
2022-09-15T07:43:38.301Z,16.10
2022-09-15T07:46:05.593Z,16.13
2022-09-15T07:48:32.157Z,16.21
2022-09-15T07:50:59.955Z,16.36
2022-09-15T07:53:30.331Z,16.51
2022-09-15T07:55:57.051Z,16.63
2022-09-15T07:58:23.773Z,16.79
2022-09-15T08:00:50.583Z,16.85
2022-09-15T08:03:17.176Z,16.71
2022-09-15T08:05:45.776Z,16.83
2022-09-15T08:08:12.555Z,16.92
2022-09-15T08:10:41.175Z,16.97
2022-09-15T08:13:08.265Z,17.25
2022-09-15T08:15:38.769Z,17.41
2022-09-15T08:18:05.977Z,17.29
2022-09-15T08:20:33.045Z,17.30
2022-09-15T08:22:59.673Z,17.31
2022-09-15T08:25:26.290Z,17.06
2022-09-15T08:27:54.164Z,16.92
2022-09-15T08:30:21.278Z,16.92
2022-09-15T08:32:48.463Z,16.91
2022-09-15T08:35:15.996Z,16.95
2022-09-15T08:37:42.733Z,17.10
2022-09-15T08:40:24.089Z,16.95
2022-09-15T08:42:52.597Z,17.26
2022-09-15T08:45:31.144Z,17.30
2022-09-15T08:48:00.236Z,17.43
2022-09-15T08:50:32.765Z,17.47
2022-09-15T08:53:06.694Z,17.57
2022-09-15T08:55:41.695Z,17.60
2022-09-15T08:58:26.621Z,17.67
2022-09-15T09:01:31.550Z,17.83
2022-09-15T09:04:17.981Z,17.96
2022-09-15T09:07:00.283Z,18.20
2022-09-15T09:09:50.173Z,18.47
2022-09-15T09:12:25.888Z,18.79
2022-09-15T09:15:11.876Z,19.37
2022-09-15T09:17:57.187Z,20.33
2022-09-15T09:20:32.236Z,21.87
2022-09-15T09:22:59.296Z,22.33
2022-09-15T09:25:27.904Z,23.46
2022-09-15T09:27:55.533Z,23.50
2022-09-15T09:30:23.483Z,22.40
2022-09-15T09:32:52.817Z,22.70
2022-09-15T09:35:42.761Z,21.47
2022-09-15T09:38:10.501Z,20.85
2022-09-15T09:40:41.156Z,20.61
2022-09-15T09:43:08.239Z,20.72
2022-09-15T09:45:34.787Z,21.20
2022-09-15T09:48:06.442Z,21.23
2022-09-15T09:50:39.040Z,20.94
2022-09-15T09:53:20.227Z,20.62
2022-09-15T09:55:46.801Z,20.55
2022-09-15T09:58:21.302Z,20.67
2022-09-15T10:00:48.133Z,20.92
2022-09-15T10:03:20.084Z,20.99
2022-09-15T10:06:01.184Z,21.02
2022-09-15T10:08:27.870Z,21.28
2022-09-15T10:11:00.554Z,21.78
2022-09-15T10:13:27.121Z,21.68
2022-09-15T10:15:56.072Z,21.78
2022-09-15T10:18:33.298Z,21.46
2022-09-15T10:21:01.858Z,21.39
2022-09-15T10:23:30.956Z,21.24
2022-09-15T10:26:20.199Z,21.08
2022-09-15T10:29:11.301Z,20.96
2022-09-15T10:31:38.544Z,21.34
2022-09-15T10:34:31.845Z,21.12
2022-09-15T10:37:24.516Z,21.19
2022-09-15T10:39:55.893Z,21.03
2022-09-15T10:42:50.371Z,20.92
2022-09-15T10:45:31.595Z,20.65
2022-09-15T10:48:20.421Z,20.38
2022-09-15T10:51:02.052Z,20.25
2022-09-15T10:53:46.854Z,20.66
2022-09-15T10:56:30.095Z,20.77
2022-09-15T10:59:34.456Z,20.84
2022-09-15T11:02:28.385Z,21.11
2022-09-15T11:05:07.016Z,21.04
2022-09-15T11:07:36.434Z,20.70
2022-09-15T11:10:18.165Z,20.55
2022-09-15T11:13:03.892Z,20.14
2022-09-15T11:15:46.377Z,20.10
2022-09-15T11:18:28.752Z,19.46
2022-09-15T11:21:05.582Z,19.24
2022-09-15T11:23:36.788Z,19.10
2022-09-15T11:26:34.024Z,19.11
2022-09-15T11:29:06.591Z,18.95
2022-09-15T11:31:42.984Z,18.49
2022-09-15T11:34:39.152Z,18.62
2022-09-15T11:37:24.329Z,18.58
2022-09-15T11:40:01.920Z,18.72
2022-09-15T11:43:00.262Z,18.82
2022-09-15T11:45:29.443Z,18.92
2022-09-15T11:48:12.728Z,18.83
2022-09-15T11:50:41.623Z,18.67
2022-09-15T11:53:25.619Z,18.79
2022-09-15T11:55:57.168Z,18.86
2022-09-15T11:58:41.893Z,18.69
2022-09-15T12:01:15.867Z,18.83
2022-09-15T12:03:50.004Z,18.74
2022-09-15T12:06:40.912Z,18.90
2022-09-15T12:09:14.661Z,18.85
2022-09-15T12:11:44.042Z,19.12
2022-09-15T12:14:29.243Z,19.20
2022-09-15T12:16:57.806Z,19.41
2022-09-15T12:19:36.517Z,19.40
2022-09-15T12:22:19.929Z,19.45
2022-09-15T12:25:03.659Z,19.34
2022-09-15T12:27:30.535Z,19.45
2022-09-15T12:29:59.735Z,19.58
2022-09-15T12:32:31.134Z,19.83
2022-09-15T12:35:16.048Z,19.99
2022-09-15T12:37:46.715Z,19.96
2022-09-15T12:40:35.486Z,20.03
2022-09-15T12:43:23.719Z,19.69
2022-09-15T12:45:56.673Z,20.07
2022-09-15T12:48:29.432Z,20.33
2022-09-15T12:50:56.492Z,20.29
2022-09-15T12:53:26.262Z,20.26
2022-09-15T12:56:01.214Z,20.17
2022-09-15T12:58:39.239Z,20.39
2022-09-15T13:01:33.118Z,20.17
2022-09-15T13:03:59.585Z,19.95
2022-09-15T13:06:27.996Z,19.88
2022-09-15T13:09:06.579Z,19.89
2022-09-15T13:14:26.505Z,19.78
2022-09-15T13:17:06.734Z,19.45
2022-09-15T13:19:33.181Z,19.41
2022-09-15T13:22:12.015Z,19.46
2022-09-15T13:25:03.245Z,19.50
2022-09-15T13:27:36.335Z,19.46
2022-09-15T13:30:22.191Z,19.14
2022-09-15T13:33:10.800Z,19.18
2022-09-15T13:35:52.528Z,18.89
2022-09-15T13:38:44.115Z,18.22
2022-09-15T13:41:33.216Z,17.78
2022-09-15T13:44:02.792Z,17.37
2022-09-15T13:46:41.154Z,17.23
2022-09-15T13:49:26.153Z,17.35
2022-09-15T13:52:00.280Z,17.51
2022-09-15T13:54:26.789Z,17.42
2022-09-15T13:56:53.464Z,17.60
2022-09-15T13:59:27.704Z,17.74
2022-09-15T14:01:54.710Z,17.73
2022-09-15T14:04:29.507Z,17.75
2022-09-15T14:07:00.798Z,17.89
2022-09-15T14:09:31.099Z,18.01
2022-09-15T14:11:59.705Z,17.98
2022-09-15T14:14:35.470Z,18.00
2022-09-15T14:17:02.218Z,18.05
2022-09-15T14:19:33.270Z,17.93
2022-09-15T14:22:01.763Z,17.90
2022-09-15T14:24:30.549Z,17.95
2022-09-15T14:27:07.722Z,17.98
2022-09-15T14:29:39.621Z,18.38
2022-09-15T14:32:06.546Z,18.29
2022-09-15T14:34:37.009Z,18.27
2022-09-15T14:37:06.035Z,18.38
2022-09-15T14:39:37.688Z,18.13
2022-09-15T14:42:30.846Z,17.84
2022-09-15T14:48:02.888Z,16.96
2022-09-15T14:50:33.262Z,16.71
2022-09-15T14:53:20.891Z,16.50
2022-09-15T14:55:52.491Z,16.31
2022-09-15T14:58:22.959Z,16.16
2022-09-15T15:00:55.077Z,15.87
2022-09-15T15:03:45.129Z,15.82
2022-09-15T15:06:28.727Z,15.84
2022-09-15T15:09:17.080Z,15.98
2022-09-15T15:11:43.707Z,16.08
2022-09-15T15:14:12.475Z,16.08
2022-09-15T15:16:51.084Z,16.24
2022-09-15T15:19:38.430Z,16.34
2022-09-15T15:22:08.801Z,16.51
2022-09-15T15:24:41.105Z,16.48
2022-09-15T15:27:43.294Z,16.53
2022-09-15T15:30:29.696Z,16.57
2022-09-15T15:33:19.555Z,16.86
2022-09-15T15:35:46.613Z,17.06
2022-09-15T15:38:16.852Z,17.08
2022-09-15T15:40:44.319Z,17.03
2022-09-15T15:43:13.596Z,17.13
2022-09-15T15:46:01.219Z,17.05
2022-09-15T15:48:35.210Z,17.15
2022-09-15T15:51:04.576Z,17.27
2022-09-15T15:53:31.185Z,17.08
2022-09-15T15:55:59.576Z,16.90
2022-09-15T15:58:26.536Z,16.88
2022-09-15T16:00:55.035Z,16.86
2022-09-15T16:03:22.518Z,16.96
2022-09-15T16:05:59.052Z,16.96
2022-09-15T16:08:38.101Z,16.88
2022-09-15T16:11:04.953Z,16.88
2022-09-15T16:13:31.437Z,16.73
2022-09-15T16:16:00.602Z,16.70
2022-09-15T16:18:28.458Z,16.61
2022-09-15T16:20:55.484Z,16.61
2022-09-15T16:23:23.118Z,16.58
2022-09-15T16:25:59.454Z,16.58
2022-09-15T16:28:26.225Z,16.49
2022-09-15T16:30:52.754Z,16.51
2022-09-15T16:33:19.598Z,16.81
2022-09-15T16:35:52.704Z,16.80
2022-09-15T16:38:20.324Z,16.66
2022-09-15T16:40:47.890Z,16.49
2022-09-15T16:43:16.631Z,16.42
2022-09-15T16:45:43.672Z,16.22
2022-09-15T16:48:11.178Z,16.12
2022-09-15T16:50:42.637Z,16.02
2022-09-15T16:53:17.885Z,16.02
2022-09-15T16:55:49.223Z,15.94
2022-09-15T16:58:17.014Z,15.92
2022-09-15T17:00:45.086Z,15.95
2022-09-15T17:03:16.576Z,15.94
2022-09-15T17:05:49.774Z,15.87
2022-09-15T17:08:21.394Z,15.83
2022-09-15T17:10:48.513Z,15.84
2022-09-15T17:13:20.837Z,15.74
2022-09-15T17:15:48.918Z,15.58
2022-09-15T17:18:15.705Z,15.57
2022-09-15T17:20:43.646Z,15.47
2022-09-15T17:23:33.752Z,15.47
2022-09-15T17:26:03.273Z,15.47
2022-09-15T17:28:33.931Z,15.43
2022-09-15T17:31:01.323Z,15.38
2022-09-15T17:33:29.249Z,15.34
2022-09-15T17:35:56.070Z,15.30
2022-09-15T17:38:23.082Z,15.26
2022-09-15T17:40:50.645Z,15.30
2022-09-15T17:43:19.588Z,15.17
2022-09-15T17:45:46.873Z,15.11
2022-09-15T17:48:13.431Z,15.00
2022-09-15T17:50:41.718Z,14.85
2022-09-15T17:53:21.398Z,14.85
2022-09-15T17:55:48.665Z,14.79
2022-09-15T17:58:15.332Z,14.74
2022-09-15T18:00:43.362Z,14.69
2022-09-15T18:03:21.134Z,14.61
2022-09-15T18:05:47.758Z,14.56
2022-09-15T18:08:14.496Z,14.55
2022-09-15T18:10:41.122Z,14.57
2022-09-15T18:13:07.660Z,14.58
2022-09-15T18:15:35.329Z,14.59
2022-09-15T18:18:04.108Z,14.56
2022-09-15T18:20:32.719Z,14.60
2022-09-15T18:23:00.262Z,14.60
2022-09-15T18:25:30.899Z,14.48
2022-09-15T18:28:01.625Z,14.45
2022-09-15T18:30:31.535Z,14.45
2022-09-15T18:32:58.999Z,14.45
2022-09-15T18:35:26.115Z,14.41
2022-09-15T18:37:57.710Z,14.45
2022-09-15T18:40:24.791Z,14.39
2022-09-15T18:42:51.459Z,14.37
2022-09-15T18:45:18.660Z,14.33
2022-09-15T18:47:49.976Z,14.36
2022-09-15T18:50:18.799Z,14.37
2022-09-15T18:52:45.307Z,14.35
2022-09-15T18:55:18.179Z,14.31
2022-09-15T18:57:45.161Z,13.76
2022-09-15T19:00:17.625Z,13.29
2022-09-15T19:02:44.148Z,13.06
2022-09-15T19:05:11.589Z,12.87
2022-09-15T19:07:38.891Z,12.73
2022-09-15T19:10:06.807Z,12.65
2022-09-15T19:12:35.042Z,12.52
2022-09-15T19:15:01.755Z,12.43
2022-09-15T19:17:28.225Z,12.40
2022-09-15T19:19:55.154Z,12.38
2022-09-15T19:22:21.781Z,12.37
2022-09-15T19:24:48.353Z,12.42
2022-09-15T19:27:14.846Z,12.46
2022-09-15T19:29:41.802Z,12.46
2022-09-15T19:32:11.781Z,12.46
2022-09-15T19:34:41.137Z,12.48
2022-09-15T19:37:12.240Z,12.46
2022-09-15T19:39:41.923Z,12.42
2022-09-15T19:42:09.791Z,12.46
2022-09-15T19:44:36.449Z,12.53
2022-09-15T19:47:02.941Z,12.58
2022-09-15T19:49:29.445Z,12.63
2022-09-15T19:51:56.092Z,12.68
2022-09-15T19:54:23.650Z,12.68
2022-09-15T19:56:50.184Z,12.71
2022-09-15T19:59:17.179Z,12.77
2022-09-15T20:01:43.653Z,12.78
2022-09-15T20:04:11.144Z,12.80
2022-09-15T20:06:37.929Z,12.85
2022-09-15T20:09:04.642Z,12.88
2022-09-15T20:11:31.779Z,12.91
2022-09-15T20:13:58.437Z,12.94
2022-09-15T20:16:25.025Z,12.99
2022-09-15T20:18:53.913Z,12.97
2022-09-15T20:21:45.784Z,12.97
2022-09-15T20:24:12.570Z,12.93
2022-09-15T20:26:39.084Z,12.90
2022-09-15T20:29:05.585Z,12.91
2022-09-15T20:31:33.089Z,12.97
2022-09-15T20:34:02.218Z,13.01
2022-09-15T20:36:33.295Z,13.02
2022-09-15T20:39:03.157Z,13.01
2022-09-15T20:41:31.794Z,13.03
2022-09-15T20:43:58.631Z,13.08
2022-09-15T20:46:25.309Z,13.12
2022-09-15T20:48:52.568Z,13.17
2022-09-15T20:51:24.000Z,13.18
2022-09-15T20:53:53.364Z,13.14
2022-09-15T20:56:23.172Z,13.10
2022-09-15T20:58:49.734Z,13.05
2022-09-15T21:01:20.247Z,13.05
2022-09-15T21:03:47.812Z,13.08
2022-09-15T21:06:25.157Z,13.01
2022-09-15T21:08:51.966Z,12.98
2022-09-15T21:11:19.829Z,12.92
2022-09-15T21:13:47.182Z,12.84
2022-09-15T21:16:16.382Z,12.76
2022-09-15T21:18:44.664Z,12.70
2022-09-15T21:21:13.726Z,12.61
2022-09-15T21:23:43.026Z,12.60
2022-09-15T21:26:13.536Z,12.56
2022-09-15T21:28:40.350Z,12.56
2022-09-15T21:31:17.595Z,12.61
2022-09-15T21:33:45.438Z,12.63
2022-09-15T21:36:14.684Z,12.67
2022-09-15T21:38:42.246Z,12.73
2022-09-15T21:41:11.194Z,12.79
2022-09-15T21:43:39.734Z,12.86
2022-09-15T21:46:08.498Z,12.90
2022-09-15T21:48:35.874Z,12.95
2022-09-15T21:51:03.928Z,13.04
2022-09-15T21:53:32.172Z,13.10
2022-09-15T21:56:03.352Z,13.18
2022-09-15T21:58:37.914Z,13.23
2022-09-15T22:01:18.743Z,13.27
2022-09-15T22:03:56.609Z,13.28
2022-09-15T22:06:31.504Z,13.22
2022-09-15T22:08:59.254Z,13.16
2022-09-15T22:11:25.786Z,13.16
2022-09-15T22:13:52.304Z,13.15
2022-09-15T22:16:23.557Z,13.16
2022-09-15T22:18:50.605Z,13.19
2022-09-15T22:21:22.436Z,13.18
2022-09-15T22:23:50.202Z,13.16
2022-09-15T22:26:19.214Z,13.08
2022-09-15T22:28:45.749Z,13.03
2022-09-15T22:31:14.021Z,13.01
2022-09-15T22:33:41.296Z,13.02
2022-09-15T22:36:19.328Z,13.03
2022-09-15T22:38:45.893Z,13.02
2022-09-15T22:41:14.839Z,12.98
2022-09-15T22:43:43.107Z,12.93
2022-09-15T22:46:10.110Z,12.88
2022-09-15T22:48:42.462Z,12.78
2022-09-15T22:51:10.456Z,12.71
2022-09-15T22:53:36.966Z,12.69
2022-09-15T22:56:06.550Z,12.66
2022-09-15T22:58:33.800Z,12.58
2022-09-15T23:01:09.544Z,12.57
2022-09-15T23:03:37.200Z,12.55
2022-09-15T23:06:04.271Z,12.53
2022-09-15T23:08:32.115Z,12.51
2022-09-15T23:11:17.155Z,12.43
2022-09-15T23:13:43.671Z,12.38
2022-09-15T23:16:10.370Z,12.33
2022-09-15T23:18:36.951Z,12.27
2022-09-15T23:21:16.466Z,12.21
2022-09-15T23:23:49.038Z,12.14
2022-09-15T23:26:18.351Z,12.11
2022-09-15T23:28:44.929Z,12.13
2022-09-15T23:31:12.849Z,12.12
2022-09-15T23:33:40.142Z,12.15
2022-09-15T23:36:09.767Z,12.18
2022-09-15T23:38:37.966Z,12.24
2022-09-15T23:41:04.590Z,12.29
2022-09-15T23:43:33.175Z,12.38
2022-09-15T23:46:00.713Z,12.38
2022-09-15T23:48:27.674Z,12.40
2022-09-15T23:50:54.345Z,12.42
2022-09-15T23:53:20.898Z,12.44
2022-09-15T23:55:47.702Z,12.46
2022-09-15T23:58:14.215Z,12.48
